Bradenton Beach, FL (34217)

7:34 PM EDT on August 26, 2016 (GMT -0400)
Anna Maria Island | | Change Station

Elev 20 ft 27.53 °N, 82.73 °W | Updated 47 seconds ago

Rain
Rain
77.7 °F
Feels Like 80 °F
N
5.6
Wind Variable Wind from NW
Gusts 7.4 mph

Today
High -- | Low -- °F
--% Chance of Precip.
Yesterday
High -- | Low -- °F
Precip. -- in
Pressure 29.93 in
Visibility 10.0 miles
Clouds Mostly Cloudy 8000 ft
Overcast 11000 ft
Heat Index 80 °F
Dew Point 78 °F
Humidity 99%
Rainfall 2.35 in
Snow Depth Not available.
7:07 AM 7:57 PM
Waning Crescent, 30% visible
SPECI KSRQ 262325Z 28004KT 10SM BKN080 OVC110 25/23 A2993 RMK AO2 LTG DSNT N AND SE AND NW RAE05 TSB2254E11 PRESRR P0000 T02500228 $
Pressure 29.93 in
Visibility 10.0 miles
Clouds Mostly Cloudy 8000 ft
Overcast 11000 ft
Heat Index 80 °F
Dew Point 78 °F
Humidity 99%
Rainfall 2.35 in
Snow Depth Not available.
7:07 AM 7:57 PM
Waning Crescent, 30% visible
SPECI KSRQ 262325Z 28004KT 10SM BKN080 OVC110 25/23 A2993 RMK AO2 LTG DSNT N AND SE AND NW RAE05 TSB2254E11 PRESRR P0000 T02500228 $

10-Day Weather Forecast

Almanac

Astronomy

Aug. 26, 2016 Rise Set
Actual Time
Civil Twilight
Nautical Twilight
Astronomical Twilight
Moon
Length of Visible Light
Length of Day
Tomorrow will be .
, % of the Moon is Illuminated

Today's Extremes

State Highs State Lows

Community

WunderPhotos

Upload Photos

1,935,255 photos uploaded!

WunderBlog® & News

Nearby

Air Quality

  Air Quality AQ Index Pollutant
Not available.

Snow Depth

Station Depth Elevation

Earthquake Activity

City Distance Mag. Time & Date
Minimum magnitude displayed is 2.5.

Coastal Water Temperatures

Place Temperature

Stations

Nearby Weather Stations

Station Location Temp. Windchill Dew Point Humidity Wind Precip. Elev Updated Type
                   

Watches & Warnings

There are currently no watches in effect.